sensor_id;sensor_type;location;lat;lon;timestamp;P1;durP1;ratioP1;P2;durP2;ratioP2
56712;SDS011;42589;45.536;9.032;2023-12-20T00:02:23;47.75;;;34.03;;
56712;SDS011;42589;45.536;9.032;2023-12-20T00:05:24;54.15;;;34.75;;
56712;SDS011;42589;45.536;9.032;2023-12-20T00:08:25;51.60;;;35.28;;
56712;SDS011;42589;45.536;9.032;2023-12-20T00:11:25;47.78;;;34.53;;
56712;SDS011;42589;45.536;9.032;2023-12-20T00:14:26;50.00;;;34.00;;
56712;SDS011;42589;45.536;9.032;2023-12-20T00:17:26;46.22;;;34.08;;
56712;SDS011;42589;45.536;9.032;2023-12-20T00:20:28;52.17;;;34.42;;
56712;SDS011;42589;45.536;9.032;2023-12-20T00:23:29;45.67;;;33.47;;
56712;SDS011;42589;45.536;9.032;2023-12-20T00:26:29;48.45;;;33.30;;
56712;SDS011;42589;45.536;9.032;2023-12-20T00:29:30;46.70;;;34.47;;
56712;SDS011;42589;45.536;9.032;2023-12-20T00:32:31;44.25;;;29.75;;
56712;SDS011;42589;45.536;9.032;2023-12-20T00:35:31;43.55;;;29.85;;
56712;SDS011;42589;45.536;9.032;2023-12-20T00:38:32;42.63;;;29.85;;
56712;SDS011;42589;45.536;9.032;2023-12-20T00:41:32;44.95;;;30.75;;
56712;SDS011;42589;45.536;9.032;2023-12-20T00:44:33;45.08;;;30.30;;
56712;SDS011;42589;45.536;9.032;2023-12-20T00:47:34;39.03;;;29.20;;
56712;SDS011;42589;45.536;9.032;2023-12-20T00:50:35;47.50;;;30.67;;
56712;SDS011;42589;45.536;9.032;2023-12-20T00:53:35;44.63;;;31.15;;
56712;SDS011;42589;45.536;9.032;2023-12-20T00:56:36;43.58;;;28.80;;
56712;SDS011;42589;45.536;9.032;2023-12-20T00:59:37;39.25;;;28.70;;
56712;SDS011;42589;45.536;9.032;2023-12-20T01:02:37;43.17;;;28.13;;
56712;SDS011;42589;45.536;9.032;2023-12-20T01:05:38;41.35;;;27.77;;
56712;SDS011;42589;45.536;9.032;2023-12-20T01:08:39;34.53;;;25.10;;
56712;SDS011;42589;45.536;9.032;2023-12-20T01:11:39;35.88;;;26.15;;
56712;SDS011;42589;45.536;9.032;2023-12-20T01:14:40;34.17;;;25.38;;
56712;SDS011;42589;45.536;9.032;2023-12-20T01:17:40;32.63;;;23.30;;
56712;SDS011;42589;45.536;9.032;2023-12-20T01:20:41;31.88;;;22.67;;
56712;SDS011;42589;45.536;9.032;2023-12-20T01:23:42;29.92;;;23.65;;
56712;SDS011;42589;45.536;9.032;2023-12-20T01:26:42;36.22;;;25.02;;
56712;SDS011;42589;45.536;9.032;2023-12-20T01:29:42;35.15;;;22.25;;
56712;SDS011;42589;45.536;9.032;2023-12-20T01:32:43;32.30;;;23.27;;
56712;SDS011;42589;45.536;9.032;2023-12-20T01:35:44;30.48;;;21.92;;
56712;SDS011;42589;45.536;9.032;2023-12-20T01:38:45;31.75;;;23.02;;
56712;SDS011;42589;45.536;9.032;2023-12-20T01:41:46;33.42;;;23.50;;
56712;SDS011;42589;45.536;9.032;2023-12-20T01:44:46;32.17;;;23.55;;
56712;SDS011;42589;45.536;9.032;2023-12-20T01:47:47;35.25;;;22.85;;
56712;SDS011;42589;45.536;9.032;2023-12-20T01:50:49;31.95;;;22.63;;
56712;SDS011;42589;45.536;9.032;2023-12-20T01:53:50;33.25;;;23.00;;
56712;SDS011;42589;45.536;9.032;2023-12-20T01:56:51;33.15;;;22.65;;
56712;SDS011;42589;45.536;9.032;2023-12-20T01:59:52;31.65;;;22.15;;
56712;SDS011;42589;45.536;9.032;2023-12-20T02:02:53;31.92;;;24.30;;
56712;SDS011;42589;45.536;9.032;2023-12-20T02:05:54;32.88;;;23.77;;
56712;SDS011;42589;45.536;9.032;2023-12-20T02:08:55;30.58;;;23.27;;
56712;SDS011;42589;45.536;9.032;2023-12-20T02:11:56;31.42;;;22.38;;
56712;SDS011;42589;45.536;9.032;2023-12-20T02:14:57;28.52;;;21.73;;
56712;SDS011;42589;45.536;9.032;2023-12-20T02:17:57;34.03;;;22.88;;
56712;SDS011;42589;45.536;9.032;2023-12-20T02:20:57;32.72;;;22.75;;
56712;SDS011;42589;45.536;9.032;2023-12-20T02:23:58;34.92;;;22.38;;
56712;SDS011;42589;45.536;9.032;2023-12-20T02:26:58;32.30;;;21.75;;
56712;SDS011;42589;45.536;9.032;2023-12-20T02:29:59;31.83;;;22.02;;
56712;SDS011;42589;45.536;9.032;2023-12-20T02:33:00;32.22;;;23.02;;
56712;SDS011;42589;45.536;9.032;2023-12-20T02:36:01;28.42;;;21.52;;
56712;SDS011;42589;45.536;9.032;2023-12-20T02:39:01;31.05;;;22.33;;
56712;SDS011;42589;45.536;9.032;2023-12-20T02:42:02;30.33;;;20.48;;
56712;SDS011;42589;45.536;9.032;2023-12-20T02:45:04;30.58;;;20.48;;
56712;SDS011;42589;45.536;9.032;2023-12-20T02:48:05;26.92;;;20.02;;
56712;SDS011;42589;45.536;9.032;2023-12-20T02:51:06;27.58;;;19.30;;
56712;SDS011;42589;45.536;9.032;2023-12-20T02:54:07;27.50;;;20.00;;
56712;SDS011;42589;45.536;9.032;2023-12-20T02:57:08;26.55;;;19.15;;
56712;SDS011;42589;45.536;9.032;2023-12-20T03:00:09;29.77;;;19.38;;
56712;SDS011;42589;45.536;9.032;2023-12-20T03:03:11;25.20;;;18.65;;
56712;SDS011;42589;45.536;9.032;2023-12-20T03:06:18;27.63;;;18.85;;
56712;SDS011;42589;45.536;9.032;2023-12-20T03:09:18;25.77;;;18.90;;
56712;SDS011;42589;45.536;9.032;2023-12-20T03:12:19;23.40;;;18.65;;
56712;SDS011;42589;45.536;9.032;2023-12-20T03:15:20;24.88;;;19.10;;
56712;SDS011;42589;45.536;9.032;2023-12-20T03:18:22;26.85;;;19.67;;
56712;SDS011;42589;45.536;9.032;2023-12-20T03:21:22;24.48;;;19.13;;
56712;SDS011;42589;45.536;9.032;2023-12-20T03:24:23;25.77;;;18.50;;
56712;SDS011;42589;45.536;9.032;2023-12-20T03:27:27;28.73;;;19.05;;
56712;SDS011;42589;45.536;9.032;2023-12-20T03:30:28;26.75;;;18.55;;
56712;SDS011;42589;45.536;9.032;2023-12-20T03:33:29;28.40;;;19.75;;
56712;SDS011;42589;45.536;9.032;2023-12-20T03:36:29;26.13;;;18.42;;
56712;SDS011;42589;45.536;9.032;2023-12-20T03:39:31;28.05;;;19.63;;
56712;SDS011;42589;45.536;9.032;2023-12-20T03:42:32;25.13;;;18.65;;
56712;SDS011;42589;45.536;9.032;2023-12-20T03:45:33;24.00;;;18.10;;
56712;SDS011;42589;45.536;9.032;2023-12-20T03:48:34;27.92;;;18.63;;
56712;SDS011;42589;45.536;9.032;2023-12-20T03:51:35;26.30;;;18.98;;
56712;SDS011;42589;45.536;9.032;2023-12-20T03:54:36;26.42;;;18.63;;
56712;SDS011;42589;45.536;9.032;2023-12-20T03:57:37;25.23;;;18.50;;
56712;SDS011;42589;45.536;9.032;2023-12-20T04:00:37;26.83;;;19.13;;
56712;SDS011;42589;45.536;9.032;2023-12-20T04:03:38;27.75;;;18.65;;
56712;SDS011;42589;45.536;9.032;2023-12-20T04:06:39;25.60;;;18.30;;
56712;SDS011;42589;45.536;9.032;2023-12-20T04:09:40;27.73;;;19.77;;
56712;SDS011;42589;45.536;9.032;2023-12-20T04:12:41;25.48;;;18.67;;
56712;SDS011;42589;45.536;9.032;2023-12-20T04:15:41;26.33;;;18.00;;
56712;SDS011;42589;45.536;9.032;2023-12-20T04:18:41;25.27;;;18.17;;
56712;SDS011;42589;45.536;9.032;2023-12-20T04:21:43;23.83;;;17.42;;
56712;SDS011;42589;45.536;9.032;2023-12-20T04:24:44;26.27;;;18.25;;
56712;SDS011;42589;45.536;9.032;2023-12-20T04:27:44;23.90;;;17.85;;
56712;SDS011;42589;45.536;9.032;2023-12-20T04:30:45;24.65;;;17.23;;
56712;SDS011;42589;45.536;9.032;2023-12-20T04:33:51;23.83;;;17.15;;
56712;SDS011;42589;45.536;9.032;2023-12-20T04:36:52;27.00;;;17.63;;
56712;SDS011;42589;45.536;9.032;2023-12-20T04:39:53;24.95;;;17.50;;
56712;SDS011;42589;45.536;9.032;2023-12-20T04:42:54;25.23;;;17.63;;
56712;SDS011;42589;45.536;9.032;2023-12-20T04:45:55;24.40;;;16.88;;
56712;SDS011;42589;45.536;9.032;2023-12-20T04:48:56;23.60;;;16.48;;
56712;SDS011;42589;45.536;9.032;2023-12-20T04:51:56;22.55;;;16.38;;
56712;SDS011;42589;45.536;9.032;2023-12-20T04:54:57;21.70;;;16.88;;
56712;SDS011;42589;45.536;9.032;2023-12-20T04:57:57;25.83;;;17.48;;
56712;SDS011;42589;45.536;9.032;2023-12-20T05:00:57;24.38;;;16.88;;
56712;SDS011;42589;45.536;9.032;2023-12-20T05:03:58;23.02;;;15.02;;
56712;SDS011;42589;45.536;9.032;2023-12-20T05:06:59;24.38;;;16.45;;
56712;SDS011;42589;45.536;9.032;2023-12-20T05:10:05;21.83;;;15.77;;
56712;SDS011;42589;45.536;9.032;2023-12-20T05:13:05;22.83;;;16.35;;
56712;SDS011;42589;45.536;9.032;2023-12-20T05:16:06;24.15;;;15.85;;
56712;SDS011;42589;45.536;9.032;2023-12-20T05:19:07;24.15;;;16.35;;
56712;SDS011;42589;45.536;9.032;2023-12-20T05:22:08;21.98;;;16.23;;
56712;SDS011;42589;45.536;9.032;2023-12-20T05:25:09;24.42;;;16.70;;
56712;SDS011;42589;45.536;9.032;2023-12-20T05:28:13;22.52;;;16.52;;
56712;SDS011;42589;45.536;9.032;2023-12-20T05:31:14;24.80;;;16.40;;
56712;SDS011;42589;45.536;9.032;2023-12-20T05:34:14;25.67;;;17.30;;
56712;SDS011;42589;45.536;9.032;2023-12-20T05:37:15;22.48;;;17.15;;
56712;SDS011;42589;45.536;9.032;2023-12-20T05:40:16;24.42;;;17.13;;
56712;SDS011;42589;45.536;9.032;2023-12-20T05:43:17;27.70;;;17.83;;
56712;SDS011;42589;45.536;9.032;2023-12-20T05:46:18;23.25;;;17.20;;
56712;SDS011;42589;45.536;9.032;2023-12-20T05:49:18;28.42;;;18.83;;
56712;SDS011;42589;45.536;9.032;2023-12-20T05:52:19;25.50;;;19.02;;
56712;SDS011;42589;45.536;9.032;2023-12-20T05:55:19;25.20;;;19.35;;
56712;SDS011;42589;45.536;9.032;2023-12-20T05:58:22;25.25;;;20.13;;
56712;SDS011;42589;45.536;9.032;2023-12-20T06:01:23;31.35;;;20.10;;
56712;SDS011;42589;45.536;9.032;2023-12-20T06:04:27;29.48;;;21.50;;
56712;SDS011;42589;45.536;9.032;2023-12-20T06:07:27;28.10;;;19.90;;
56712;SDS011;42589;45.536;9.032;2023-12-20T06:10:29;27.10;;;19.42;;
56712;SDS011;42589;45.536;9.032;2023-12-20T06:13:29;26.70;;;18.70;;
56712;SDS011;42589;45.536;9.032;2023-12-20T06:16:30;25.08;;;19.48;;
56712;SDS011;42589;45.536;9.032;2023-12-20T06:19:30;23.48;;;17.95;;
56712;SDS011;42589;45.536;9.032;2023-12-20T06:22:31;25.40;;;18.60;;
56712;SDS011;42589;45.536;9.032;2023-12-20T06:25:32;24.48;;;19.40;;
56712;SDS011;42589;45.536;9.032;2023-12-20T06:28:32;26.63;;;19.70;;
56712;SDS011;42589;45.536;9.032;2023-12-20T06:31:33;28.10;;;20.33;;
56712;SDS011;42589;45.536;9.032;2023-12-20T06:34:34;27.00;;;20.30;;
56712;SDS011;42589;45.536;9.032;2023-12-20T06:37:35;27.10;;;20.63;;
56712;SDS011;42589;45.536;9.032;2023-12-20T06:40:36;30.00;;;21.92;;
56712;SDS011;42589;45.536;9.032;2023-12-20T06:43:37;26.85;;;20.45;;
56712;SDS011;42589;45.536;9.032;2023-12-20T06:46:38;27.95;;;20.35;;
56712;SDS011;42589;45.536;9.032;2023-12-20T06:49:39;28.63;;;21.42;;
56712;SDS011;42589;45.536;9.032;2023-12-20T06:52:40;31.70;;;21.20;;
56712;SDS011;42589;45.536;9.032;2023-12-20T06:55:41;27.40;;;20.15;;
56712;SDS011;42589;45.536;9.032;2023-12-20T06:58:41;29.33;;;21.25;;
56712;SDS011;42589;45.536;9.032;2023-12-20T07:01:42;30.95;;;20.60;;
56712;SDS011;42589;45.536;9.032;2023-12-20T07:04:42;25.45;;;19.40;;
56712;SDS011;42589;45.536;9.032;2023-12-20T07:07:43;27.90;;;20.63;;
56712;SDS011;42589;45.536;9.032;2023-12-20T07:10:44;28.02;;;19.83;;
56712;SDS011;42589;45.536;9.032;2023-12-20T07:13:44;26.95;;;19.90;;
56712;SDS011;42589;45.536;9.032;2023-12-20T07:16:45;27.13;;;19.52;;
56712;SDS011;42589;45.536;9.032;2023-12-20T07:19:46;28.73;;;18.88;;
56712;SDS011;42589;45.536;9.032;2023-12-20T07:22:48;28.50;;;19.90;;
56712;SDS011;42589;45.536;9.032;2023-12-20T07:25:49;29.17;;;19.23;;
56712;SDS011;42589;45.536;9.032;2023-12-20T07:28:49;29.02;;;20.23;;
56712;SDS011;42589;45.536;9.032;2023-12-20T07:31:50;28.10;;;19.85;;
56712;SDS011;42589;45.536;9.032;2023-12-20T07:34:52;30.00;;;19.70;;
56712;SDS011;42589;45.536;9.032;2023-12-20T07:37:54;30.58;;;20.70;;
56712;SDS011;42589;45.536;9.032;2023-12-20T07:40:55;24.05;;;18.92;;
56712;SDS011;42589;45.536;9.032;2023-12-20T07:43:58;31.40;;;20.73;;
56712;SDS011;42589;45.536;9.032;2023-12-20T07:46:59;31.25;;;19.98;;
56712;SDS011;42589;45.536;9.032;2023-12-20T07:50:01;38.70;;;23.08;;
56712;SDS011;42589;45.536;9.032;2023-12-20T07:53:02;31.83;;;21.65;;
56712;SDS011;42589;45.536;9.032;2023-12-20T07:56:13;28.60;;;20.38;;
56712;SDS011;42589;45.536;9.032;2023-12-20T07:59:18;31.73;;;21.63;;
56712;SDS011;42589;45.536;9.032;2023-12-20T08:02:19;33.50;;;22.88;;
56712;SDS011;42589;45.536;9.032;2023-12-20T08:05:19;29.58;;;21.45;;
56712;SDS011;42589;45.536;9.032;2023-12-20T08:08:20;32.60;;;21.83;;
56712;SDS011;42589;45.536;9.032;2023-12-20T08:11:24;36.72;;;22.42;;
56712;SDS011;42589;45.536;9.032;2023-12-20T08:14:24;32.67;;;22.45;;
56712;SDS011;42589;45.536;9.032;2023-12-20T08:17:25;31.08;;;22.05;;
56712;SDS011;42589;45.536;9.032;2023-12-20T08:20:26;31.25;;;21.98;;
56712;SDS011;42589;45.536;9.032;2023-12-20T08:23:27;38.20;;;21.48;;
56712;SDS011;42589;45.536;9.032;2023-12-20T08:26:28;32.92;;;21.27;;
56712;SDS011;42589;45.536;9.032;2023-12-20T08:29:29;30.55;;;21.25;;
56712;SDS011;42589;45.536;9.032;2023-12-20T08:32:30;28.40;;;20.75;;
56712;SDS011;42589;45.536;9.032;2023-12-20T08:35:30;31.05;;;21.73;;
56712;SDS011;42589;45.536;9.032;2023-12-20T08:38:31;29.67;;;21.27;;
56712;SDS011;42589;45.536;9.032;2023-12-20T08:41:32;29.63;;;21.98;;
56712;SDS011;42589;45.536;9.032;2023-12-20T08:44:33;35.75;;;24.02;;
56712;SDS011;42589;45.536;9.032;2023-12-20T08:47:34;29.35;;;21.10;;
56712;SDS011;42589;45.536;9.032;2023-12-20T08:50:35;34.45;;;23.50;;
56712;SDS011;42589;45.536;9.032;2023-12-20T08:53:36;36.58;;;25.02;;
56712;SDS011;42589;45.536;9.032;2023-12-20T08:56:37;38.53;;;24.02;;
56712;SDS011;42589;45.536;9.032;2023-12-20T08:59:37;35.75;;;24.10;;
56712;SDS011;42589;45.536;9.032;2023-12-20T09:02:38;36.15;;;23.52;;
56712;SDS011;42589;45.536;9.032;2023-12-20T09:05:39;37.70;;;24.52;;
56712;SDS011;42589;45.536;9.032;2023-12-20T09:08:39;36.70;;;24.73;;
56712;SDS011;42589;45.536;9.032;2023-12-20T09:11:40;34.53;;;23.83;;
56712;SDS011;42589;45.536;9.032;2023-12-20T09:14:41;35.40;;;24.98;;
56712;SDS011;42589;45.536;9.032;2023-12-20T09:17:42;36.50;;;25.05;;
56712;SDS011;42589;45.536;9.032;2023-12-20T09:20:43;43.63;;;24.70;;
56712;SDS011;42589;45.536;9.032;2023-12-20T09:23:44;38.35;;;24.88;;
56712;SDS011;42589;45.536;9.032;2023-12-20T09:26:45;40.13;;;24.95;;
56712;SDS011;42589;45.536;9.032;2023-12-20T09:29:47;36.53;;;26.15;;
56712;SDS011;42589;45.536;9.032;2023-12-20T09:32:48;33.70;;;24.42;;
56712;SDS011;42589;45.536;9.032;2023-12-20T09:35:49;41.42;;;25.73;;
56712;SDS011;42589;45.536;9.032;2023-12-20T09:38:49;40.75;;;25.92;;
56712;SDS011;42589;45.536;9.032;2023-12-20T09:42:25;32.08;;;23.90;;
56712;SDS011;42589;45.536;9.032;2023-12-20T09:45:20;36.42;;;25.17;;
56712;SDS011;42589;45.536;9.032;2023-12-20T09:48:20;34.63;;;25.95;;
56712;SDS011;42589;45.536;9.032;2023-12-20T09:51:21;37.58;;;25.75;;
56712;SDS011;42589;45.536;9.032;2023-12-20T09:54:22;32.63;;;23.75;;
56712;SDS011;42589;45.536;9.032;2023-12-20T09:57:23;38.35;;;25.42;;
56712;SDS011;42589;45.536;9.032;2023-12-20T10:00:24;33.42;;;24.75;;
56712;SDS011;42589;45.536;9.032;2023-12-20T10:03:26;37.78;;;24.80;;
56712;SDS011;42589;45.536;9.032;2023-12-20T10:06:26;40.47;;;24.58;;
56712;SDS011;42589;45.536;9.032;2023-12-20T10:09:30;38.28;;;24.98;;
56712;SDS011;42589;45.536;9.032;2023-12-20T10:12:32;35.50;;;25.17;;
56712;SDS011;42589;45.536;9.032;2023-12-20T10:15:33;35.38;;;24.88;;
56712;SDS011;42589;45.536;9.032;2023-12-20T10:18:34;35.33;;;25.65;;
56712;SDS011;42589;45.536;9.032;2023-12-20T10:21:38;38.92;;;27.52;;
56712;SDS011;42589;45.536;9.032;2023-12-20T10:24:39;37.72;;;26.60;;
56712;SDS011;42589;45.536;9.032;2023-12-20T10:27:40;37.45;;;24.98;;
56712;SDS011;42589;45.536;9.032;2023-12-20T10:30:41;45.97;;;27.63;;
56712;SDS011;42589;45.536;9.032;2023-12-20T10:33:41;42.03;;;26.55;;
56712;SDS011;42589;45.536;9.032;2023-12-20T10:36:42;33.50;;;26.98;;
56712;SDS011;42589;45.536;9.032;2023-12-20T10:39:43;34.65;;;27.75;;
56712;SDS011;42589;45.536;9.032;2023-12-20T10:42:44;37.55;;;26.88;;
56712;SDS011;42589;45.536;9.032;2023-12-20T10:45:45;35.35;;;26.25;;
56712;SDS011;42589;45.536;9.032;2023-12-20T10:48:46;36.40;;;27.35;;
56712;SDS011;42589;45.536;9.032;2023-12-20T10:51:47;37.20;;;27.33;;
56712;SDS011;42589;45.536;9.032;2023-12-20T10:54:48;40.55;;;28.63;;
56712;SDS011;42589;45.536;9.032;2023-12-20T10:57:51;39.85;;;29.00;;
56712;SDS011;42589;45.536;9.032;2023-12-20T11:00:55;36.05;;;27.58;;
56712;SDS011;42589;45.536;9.032;2023-12-20T11:03:58;39.70;;;28.13;;
56712;SDS011;42589;45.536;9.032;2023-12-20T11:07:01;36.83;;;28.40;;
56712;SDS011;42589;45.536;9.032;2023-12-20T11:10:23;40.05;;;27.95;;
56712;SDS011;42589;45.536;9.032;2023-12-20T11:13:30;35.70;;;28.20;;
56712;SDS011;42589;45.536;9.032;2023-12-20T11:16:32;40.90;;;30.33;;
56712;SDS011;42589;45.536;9.032;2023-12-20T11:19:35;39.40;;;28.75;;
56712;SDS011;42589;45.536;9.032;2023-12-20T11:22:36;44.05;;;29.52;;
56712;SDS011;42589;45.536;9.032;2023-12-20T11:25:47;36.83;;;28.35;;
56712;SDS011;42589;45.536;9.032;2023-12-20T11:28:48;36.13;;;27.65;;
56712;SDS011;42589;45.536;9.032;2023-12-20T11:31:49;38.30;;;27.92;;
56712;SDS011;42589;45.536;9.032;2023-12-20T11:34:53;40.25;;;29.95;;
56712;SDS011;42589;45.536;9.032;2023-12-20T11:40:55;39.97;;;29.38;;
56712;SDS011;42589;45.536;9.032;2023-12-20T11:43:56;43.28;;;30.08;;
56712;SDS011;42589;45.536;9.032;2023-12-20T11:46:58;43.70;;;30.50;;
56712;SDS011;42589;45.536;9.032;2023-12-20T11:49:59;37.28;;;28.83;;
56712;SDS011;42589;45.536;9.032;2023-12-20T11:53:03;36.95;;;28.23;;
56712;SDS011;42589;45.536;9.032;2023-12-20T11:56:05;35.35;;;26.23;;
56712;SDS011;42589;45.536;9.032;2023-12-20T11:59:07;36.97;;;27.27;;
56712;SDS011;42589;45.536;9.032;2023-12-20T12:02:08;34.45;;;27.48;;
56712;SDS011;42589;45.536;9.032;2023-12-20T12:05:12;38.97;;;28.23;;
56712;SDS011;42589;45.536;9.032;2023-12-20T12:11:17;34.97;;;28.10;;
56712;SDS011;42589;45.536;9.032;2023-12-20T12:14:18;37.20;;;27.85;;
56712;SDS011;42589;45.536;9.032;2023-12-20T12:17:19;34.17;;;26.48;;
56712;SDS011;42589;45.536;9.032;2023-12-20T12:20:20;36.67;;;28.25;;
56712;SDS011;42589;45.536;9.032;2023-12-20T12:23:24;33.60;;;28.05;;
56712;SDS011;42589;45.536;9.032;2023-12-20T12:26:24;41.83;;;31.43;;
56712;SDS011;42589;45.536;9.032;2023-12-20T12:29:25;38.08;;;30.48;;
56712;SDS011;42589;45.536;9.032;2023-12-20T12:32:26;42.17;;;31.00;;
56712;SDS011;42589;45.536;9.032;2023-12-20T12:35:27;38.97;;;32.47;;
56712;SDS011;42589;45.536;9.032;2023-12-20T12:38:27;45.35;;;35.83;;
56712;SDS011;42589;45.536;9.032;2023-12-20T12:41:29;44.78;;;35.10;;
56712;SDS011;42589;45.536;9.032;2023-12-20T12:44:29;43.70;;;35.28;;
56712;SDS011;42589;45.536;9.032;2023-12-20T12:47:31;44.35;;;35.33;;
56712;SDS011;42589;45.536;9.032;2023-12-20T12:50:31;42.88;;;33.92;;
56712;SDS011;42589;45.536;9.032;2023-12-20T12:53:32;45.90;;;35.00;;
56712;SDS011;42589;45.536;9.032;2023-12-20T12:56:32;43.13;;;34.30;;
56712;SDS011;42589;45.536;9.032;2023-12-20T12:59:33;43.38;;;34.78;;
56712;SDS011;42589;45.536;9.032;2023-12-20T13:02:34;44.40;;;34.17;;
56712;SDS011;42589;45.536;9.032;2023-12-20T13:05:35;43.15;;;34.35;;
56712;SDS011;42589;45.536;9.032;2023-12-20T13:08:35;42.95;;;33.08;;
56712;SDS011;42589;45.536;9.032;2023-12-20T13:11:36;40.30;;;34.13;;
56712;SDS011;42589;45.536;9.032;2023-12-20T13:14:37;39.70;;;33.33;;
56712;SDS011;42589;45.536;9.032;2023-12-20T13:17:38;46.70;;;34.78;;
56712;SDS011;42589;45.536;9.032;2023-12-20T13:20:38;42.13;;;32.25;;
56712;SDS011;42589;45.536;9.032;2023-12-20T13:23:40;41.47;;;33.88;;
56712;SDS011;42589;45.536;9.032;2023-12-20T13:26:41;41.50;;;33.63;;
56712;SDS011;42589;45.536;9.032;2023-12-20T13:29:42;40.83;;;32.75;;
56712;SDS011;42589;45.536;9.032;2023-12-20T13:32:42;44.90;;;34.00;;
56712;SDS011;42589;45.536;9.032;2023-12-20T13:35:43;41.85;;;33.22;;
56712;SDS011;42589;45.536;9.032;2023-12-20T13:38:44;36.85;;;31.55;;
56712;SDS011;42589;45.536;9.032;2023-12-20T13:41:46;42.97;;;31.95;;
56712;SDS011;42589;45.536;9.032;2023-12-20T13:44:46;42.25;;;32.60;;
56712;SDS011;42589;45.536;9.032;2023-12-20T13:47:47;41.47;;;33.00;;
56712;SDS011;42589;45.536;9.032;2023-12-20T13:50:48;40.05;;;32.35;;
56712;SDS011;42589;45.536;9.032;2023-12-20T13:53:50;44.15;;;34.15;;
56712;SDS011;42589;45.536;9.032;2023-12-20T13:56:50;45.17;;;34.42;;
56712;SDS011;42589;45.536;9.032;2023-12-20T13:59:50;45.78;;;35.72;;
56712;SDS011;42589;45.536;9.032;2023-12-20T14:02:51;44.58;;;33.72;;
56712;SDS011;42589;45.536;9.032;2023-12-20T14:05:52;37.28;;;31.63;;
56712;SDS011;42589;45.536;9.032;2023-12-20T14:08:53;45.45;;;34.60;;
56712;SDS011;42589;45.536;9.032;2023-12-20T14:11:55;46.85;;;35.20;;
56712;SDS011;42589;45.536;9.032;2023-12-20T14:14:56;43.22;;;35.13;;
56712;SDS011;42589;45.536;9.032;2023-12-20T14:17:56;48.20;;;36.70;;
56712;SDS011;42589;45.536;9.032;2023-12-20T14:20:58;50.72;;;37.38;;
56712;SDS011;42589;45.536;9.032;2023-12-20T14:23:59;42.90;;;35.67;;
56712;SDS011;42589;45.536;9.032;2023-12-20T14:27:00;44.33;;;36.38;;
56712;SDS011;42589;45.536;9.032;2023-12-20T14:30:01;46.75;;;36.70;;
56712;SDS011;42589;45.536;9.032;2023-12-20T14:33:02;47.55;;;35.97;;
56712;SDS011;42589;45.536;9.032;2023-12-20T14:36:04;46.95;;;36.15;;
56712;SDS011;42589;45.536;9.032;2023-12-20T14:39:05;44.38;;;36.70;;
56712;SDS011;42589;45.536;9.032;2023-12-20T14:42:06;46.55;;;36.95;;
56712;SDS011;42589;45.536;9.032;2023-12-20T14:45:07;47.28;;;38.28;;
56712;SDS011;42589;45.536;9.032;2023-12-20T14:48:07;46.65;;;38.58;;
56712;SDS011;42589;45.536;9.032;2023-12-20T14:51:08;48.70;;;37.22;;
56712;SDS011;42589;45.536;9.032;2023-12-20T14:54:09;47.97;;;38.75;;
56712;SDS011;42589;45.536;9.032;2023-12-20T14:57:10;48.53;;;37.33;;
56712;SDS011;42589;45.536;9.032;2023-12-20T15:00:11;53.05;;;39.80;;
56712;SDS011;42589;45.536;9.032;2023-12-20T15:03:16;50.10;;;39.05;;
56712;SDS011;42589;45.536;9.032;2023-12-20T15:06:18;47.25;;;39.60;;
56712;SDS011;42589;45.536;9.032;2023-12-20T15:09:20;48.20;;;39.40;;
56712;SDS011;42589;45.536;9.032;2023-12-20T15:12:21;51.42;;;39.05;;
56712;SDS011;42589;45.536;9.032;2023-12-20T15:15:23;51.47;;;40.53;;
56712;SDS011;42589;45.536;9.032;2023-12-20T15:18:24;47.78;;;38.63;;
56712;SDS011;42589;45.536;9.032;2023-12-20T15:21:24;54.00;;;41.25;;
56712;SDS011;42589;45.536;9.032;2023-12-20T15:24:32;56.92;;;41.25;;
56712;SDS011;42589;45.536;9.032;2023-12-20T15:27:38;51.20;;;39.88;;
56712;SDS011;42589;45.536;9.032;2023-12-20T15:30:39;54.67;;;41.35;;
56712;SDS011;42589;45.536;9.032;2023-12-20T15:33:40;53.22;;;42.45;;
56712;SDS011;42589;45.536;9.032;2023-12-20T15:36:43;55.30;;;44.55;;
56712;SDS011;42589;45.536;9.032;2023-12-20T15:39:44;58.10;;;45.33;;
56712;SDS011;42589;45.536;9.032;2023-12-20T15:42:45;64.45;;;46.85;;
56712;SDS011;42589;45.536;9.032;2023-12-20T15:45:47;55.90;;;45.83;;
56712;SDS011;42589;45.536;9.032;2023-12-20T15:48:47;64.68;;;46.50;;
56712;SDS011;42589;45.536;9.032;2023-12-20T15:51:48;60.20;;;46.72;;
56712;SDS011;42589;45.536;9.032;2023-12-20T15:54:49;68.40;;;50.63;;
56712;SDS011;42589;45.536;9.032;2023-12-20T15:57:51;61.60;;;48.78;;
56712;SDS011;42589;45.536;9.032;2023-12-20T16:00:51;67.47;;;50.17;;
56712;SDS011;42589;45.536;9.032;2023-12-20T16:03:52;64.63;;;49.42;;
56712;SDS011;42589;45.536;9.032;2023-12-20T16:06:53;69.20;;;51.50;;
56712;SDS011;42589;45.536;9.032;2023-12-20T16:09:54;67.93;;;52.15;;
56712;SDS011;42589;45.536;9.032;2023-12-20T16:12:57;67.93;;;52.42;;
56712;SDS011;42589;45.536;9.032;2023-12-20T16:16:00;73.20;;;54.00;;
56712;SDS011;42589;45.536;9.032;2023-12-20T16:19:01;68.20;;;54.33;;
56712;SDS011;42589;45.536;9.032;2023-12-20T16:22:02;69.05;;;55.55;;
56712;SDS011;42589;45.536;9.032;2023-12-20T16:25:05;70.95;;;53.72;;
56712;SDS011;42589;45.536;9.032;2023-12-20T16:28:06;72.95;;;55.38;;
56712;SDS011;42589;45.536;9.032;2023-12-20T16:31:07;70.07;;;54.80;;
56712;SDS011;42589;45.536;9.032;2023-12-20T16:34:09;67.70;;;52.58;;
56712;SDS011;42589;45.536;9.032;2023-12-20T16:37:09;62.50;;;52.60;;
56712;SDS011;42589;45.536;9.032;2023-12-20T16:40:11;63.40;;;53.58;;
56712;SDS011;42589;45.536;9.032;2023-12-20T16:43:12;69.85;;;53.10;;
56712;SDS011;42589;45.536;9.032;2023-12-20T16:46:14;69.15;;;55.50;;
56712;SDS011;42589;45.536;9.032;2023-12-20T16:49:16;74.80;;;56.72;;
56712;SDS011;42589;45.536;9.032;2023-12-20T16:52:18;79.05;;;58.10;;
56712;SDS011;42589;45.536;9.032;2023-12-20T16:55:19;71.90;;;55.90;;
56712;SDS011;42589;45.536;9.032;2023-12-20T16:58:21;69.97;;;54.53;;
56712;SDS011;42589;45.536;9.032;2023-12-20T17:01:21;72.13;;;55.58;;
56712;SDS011;42589;45.536;9.032;2023-12-20T17:04:26;72.50;;;56.95;;
56712;SDS011;42589;45.536;9.032;2023-12-20T17:07:26;75.50;;;56.78;;
56712;SDS011;42589;45.536;9.032;2023-12-20T17:10:27;70.20;;;57.28;;
56712;SDS011;42589;45.536;9.032;2023-12-20T17:13:28;76.00;;;58.95;;
56712;SDS011;42589;45.536;9.032;2023-12-20T17:16:30;76.32;;;59.00;;
56712;SDS011;42589;45.536;9.032;2023-12-20T17:19:31;79.38;;;57.85;;
56712;SDS011;42589;45.536;9.032;2023-12-20T17:22:32;74.63;;;54.83;;
56712;SDS011;42589;45.536;9.032;2023-12-20T17:25:32;77.45;;;59.33;;
56712;SDS011;42589;45.536;9.032;2023-12-20T17:28:38;74.05;;;58.05;;
56712;SDS011;42589;45.536;9.032;2023-12-20T17:31:42;76.53;;;60.10;;
56712;SDS011;42589;45.536;9.032;2023-12-20T17:34:42;75.03;;;58.55;;
56712;SDS011;42589;45.536;9.032;2023-12-20T17:37:44;77.45;;;60.75;;
56712;SDS011;42589;45.536;9.032;2023-12-20T17:40:45;78.57;;;59.33;;
56712;SDS011;42589;45.536;9.032;2023-12-20T17:43:46;76.75;;;62.13;;
56712;SDS011;42589;45.536;9.032;2023-12-20T17:46:48;75.63;;;59.63;;